Time;durP1;ratioP1;P1;durP2;ratioP2;P2;SDS_P1;SDS_P2;PMS_P1;PMS_P2;Temp;Humidity;BMP_temperature;BMP_pressure;BME280_temperature;BME280_humidity;BME280_pressure;Samples;Min_cycle;Max_cycle;Signal;HPM_P1;HPM_P2
2023/04/10 00:01:43;;;;;;;27.98;11.82;;;;;;;6.85;100.00;102127.47;6277124;28;20406;-76
2023/04/10 00:04:45;;;;;;;32.13;11.63;;;;;;;6.89;100.00;102125.66;6277731;28;20115;-76
2023/04/10 00:07:46;;;;;;;29.77;12.45;;;;;;;6.85;100.00;102129.22;6277326;28;20056;-76
2023/04/10 00:10:47;;;;;;;36.22;13.75;;;;;;;6.81;100.00;102120.59;6277280;28;20064;-76
2023/04/10 00:13:49;;;;;;;32.58;12.75;;;;;;;6.79;100.00;102114.50;6277229;28;20076;-76
2023/04/10 00:16:52;;;;;;;28.52;12.35;;;;;;;6.74;100.00;102121.56;6277476;28;20115;-76
2023/04/10 00:19:53;;;;;;;30.73;11.52;;;;;;;6.75;100.00;102114.56;6277032;28;20041;-76
2023/04/10 00:22:55;;;;;;;26.98;12.32;;;;;;;6.72;100.00;102120.72;6276837;28;20056;-76
2023/04/10 00:25:56;;;;;;;32.13;12.45;;;;;;;6.72;100.00;102112.88;6276527;28;20064;-76
2023/04/10 00:28:57;;;;;;;29.95;12.60;;;;;;;6.69;100.00;102114.69;6276407;28;20048;-76
2023/04/10 00:32:00;;;;;;;31.20;12.05;;;;;;;6.62;100.00;102103.44;6276568;28;20052;-76
2023/04/10 00:35:02;;;;;;;30.50;11.13;;;;;;;6.58;100.00;102109.59;6268867;28;20060;-76
2023/04/10 00:38:03;;;;;;;31.08;12.60;;;;;;;6.54;100.00;102103.59;6276754;28;20437;-76
2023/04/10 00:41:05;;;;;;;29.58;11.27;;;;;;;6.50;100.00;102106.25;6276303;28;20049;-76
2023/04/10 00:44:07;;;;;;;25.40;12.65;;;;;;;6.46;100.00;102108.03;6276773;28;20178;-76
2023/04/10 00:47:10;;;;;;;23.90;11.30;;;;;;;6.41;100.00;102109.88;6276268;28;20195;-76
2023/04/10 00:50:11;;;;;;;31.23;13.25;;;;;;;6.33;100.00;102109.09;6276214;28;20041;-76
2023/04/10 00:53:13;;;;;;;33.75;13.32;;;;;;;6.28;100.00;102109.16;6276503;28;20053;-76
2023/04/10 00:56:14;;;;;;;30.63;12.30;;;;;;;6.23;100.00;102110.97;6275907;28;20052;-76
2023/04/10 00:59:16;;;;;;;29.15;12.93;;;;;;;6.20;100.00;102104.94;6276349;28;20052;-76
2023/04/10 01:02:19;;;;;;;28.40;11.40;;;;;;;6.20;100.00;102113.63;6276096;28;20441;-76
2023/04/10 01:05:20;;;;;;;30.23;12.00;;;;;;;6.17;100.00;102102.34;6276121;28;20052;-76
2023/04/10 01:08:32;;;;;;;31.77;12.95;;;;;;;6.13;100.00;102108.47;6275531;28;20064;-76
2023/04/10 01:11:45;;;;;;;32.92;12.50;;;;;;;6.12;100.00;102101.53;6276017;28;20037;-76
2023/04/10 01:14:52;;;;;;;30.77;11.75;;;;;;;6.11;100.00;102090.25;6275811;28;20056;-76
2023/04/10 01:18:01;;;;;;;32.70;12.63;;;;;;;6.03;100.00;102085.13;6275715;28;20049;-76
2023/04/10 01:21:07;;;;;;;28.88;12.55;;;;;;;6.06;100.00;102086.84;6275469;28;20052;-76
2023/04/10 01:24:21;;;;;;;31.48;13.38;;;;;;;5.99;100.00;102090.41;6275691;28;20095;-76
2023/04/10 01:27:40;;;;;;;33.80;13.68;;;;;;;5.95;100.00;102079.16;6275168;28;20045;-76
2023/04/10 01:30:44;;;;;;;32.42;12.68;;;;;;;5.98;100.00;102075.63;6275794;28;20131;-76
2023/04/10 01:33:49;;;;;;;32.33;13.57;;;;;;;5.96;100.00;102073.06;6275422;28;20048;-76
2023/04/10 01:36:55;;;;;;;34.30;14.15;;;;;;;5.92;100.00;102076.59;6275223;28;20049;-76
2023/04/10 01:39:59;;;;;;;38.95;14.70;;;;;;;5.90;100.00;102074.81;6274970;28;20457;-76
2023/04/10 01:43:05;;;;;;;31.83;13.40;;;;;;;5.88;100.00;102076.59;6267431;28;20441;-76
2023/04/10 01:46:09;;;;;;;34.72;15.02;;;;;;;5.86;100.00;102074.03;6275198;28;20057;-76
2023/04/10 01:49:12;;;;;;;36.03;14.00;;;;;;;5.87;100.00;102067.91;6275313;28;20437;-76
2023/04/10 01:52:15;;;;;;;34.45;14.18;;;;;;;5.82;100.00;102069.72;6274903;28;20052;-76
2023/04/10 01:55:17;;;;;;;30.75;13.85;;;;;;;5.80;100.00;102066.25;6275102;28;20131;-76
2023/04/10 01:58:18;;;;;;;35.15;13.20;;;;;;;5.78;100.00;102073.25;6274733;28;20053;-76
2023/04/10 02:01:21;;;;;;;37.25;15.05;;;;;;;5.74;100.00;102061.97;6275056;28;20080;-77
2023/04/10 02:04:25;;;;;;;30.55;13.25;;;;;;;5.70;100.00;102054.22;6275038;28;20071;-76
2023/04/10 02:07:30;;;;;;;29.83;12.95;;;;;;;5.72;100.00;102052.44;6274743;28;20437;-76
2023/04/10 02:10:41;;;;;;;44.30;14.05;;;;;;;5.70;100.00;102049.00;6275001;28;20045;-76
2023/04/10 02:13:42;;;;;;;36.83;13.88;;;;;;;5.70;100.00;102059.44;6275390;28;20143;-76
2023/04/10 02:16:47;;;;;;;38.70;14.43;;;;;;;5.69;100.00;102050.75;6274638;28;20049;-76
2023/04/10 02:19:50;;;;;;;38.28;16.20;;;;;;;5.63;100.00;102042.97;6274974;28;20179;-76
2023/04/10 02:22:52;;;;;;;34.20;14.65;;;;;;;5.62;100.00;102036.03;6274692;28;20049;-76
2023/04/10 02:25:55;;;;;;;40.08;16.13;;;;;;;5.63;100.00;102039.50;6274574;28;20457;-76
2023/04/10 02:28:57;;;;;;;39.80;13.82;;;;;;;5.57;100.00;102027.41;6274849;28;20127;-76
2023/04/10 02:32:00;;;;;;;36.00;13.50;;;;;;;5.53;100.00;102023.13;6274406;28;20045;-76
2023/04/10 02:35:01;;;;;;;34.75;13.65;;;;;;;5.51;100.00;102024.91;6274836;28;20045;-76
2023/04/10 02:38:03;;;;;;;39.78;15.40;;;;;;;5.52;100.00;102024.88;6274296;28;20049;-76
2023/04/10 02:41:05;;;;;;;41.67;15.05;;;;;;;5.52;100.00;102018.78;6271733;28;20049;-75
2023/04/10 02:44:06;;;;;;;37.63;14.07;;;;;;;5.53;100.00;102025.72;6273840;28;20056;-76
2023/04/10 02:47:09;;;;;;;36.15;13.57;;;;;;;5.50;100.00;102023.19;6274236;28;20053;-76
2023/04/10 02:50:10;;;;;;;37.10;14.70;;;;;;;5.46;100.00;102016.28;6275843;28;20048;-76
2023/04/10 02:53:13;;;;;;;29.48;12.48;;;;;;;5.44;100.00;102018.88;6275388;28;20052;-76
2023/04/10 02:56:14;;;;;;;35.70;13.38;;;;;;;5.38;100.00;102018.94;6279049;28;20049;-76
2023/04/10 02:59:16;;;;;;;32.03;12.93;;;;;;;5.32;100.00;102014.69;6279084;28;20056;-76
2023/04/10 03:02:19;;;;;;;34.78;15.05;;;;;;;5.30;100.00;102007.75;6278828;28;20045;-76
2023/04/10 03:05:20;;;;;;;41.47;16.30;;;;;;;5.28;100.00;102012.13;6278889;28;20432;-76
2023/04/10 03:08:22;;;;;;;45.28;15.00;;;;;;;5.26;100.00;102006.03;6278977;28;20056;-76
2023/04/10 03:11:24;;;;;;;38.15;14.40;;;;;;;5.21;100.00;102007.84;6278684;28;20045;-75
2023/04/10 03:14:26;;;;;;;32.58;13.63;;;;;;;5.18;100.00;102008.75;6278692;28;20045;-76
2023/04/10 03:17:29;;;;;;;34.75;13.25;;;;;;;5.17;100.00;102001.78;6278524;28;20438;-75
2023/04/10 03:20:31;;;;;;;39.88;14.52;;;;;;;5.14;100.00;101998.38;6278506;28;20045;-76
2023/04/10 03:23:33;;;;;;;30.63;13.73;;;;;;;5.10;100.00;102000.16;6278423;28;20056;-76
2023/04/10 03:26:34;;;;;;;38.72;14.75;;;;;;;5.06;100.00;101996.72;6278103;28;20046;-76
2023/04/10 03:29:36;;;;;;;40.15;14.20;;;;;;;5.11;100.00;101988.84;6278520;28;20056;-76
2023/04/10 03:32:41;;;;;;;40.28;14.70;;;;;;;5.02;100.00;101987.19;6278311;28;20044;-75
2023/04/10 03:35:42;;;;;;;36.67;14.10;;;;;;;5.03;100.00;101994.13;6278141;28;20056;-75
2023/04/10 03:38:44;;;;;;;44.60;14.23;;;;;;;4.98;100.00;101987.25;6273784;28;20059;-76
2023/04/10 03:41:45;;;;;;;31.88;14.23;;;;;;;4.98;100.00;101984.63;6260303;28;20036;-75
2023/04/10 03:44:46;;;;;;;32.67;13.75;;;;;;;5.00;100.00;101980.28;6259289;28;20040;-76
2023/04/10 03:47:49;;;;;;;28.33;12.30;;;;;;;5.01;100.00;101976.81;6255735;28;20056;-76
2023/04/10 03:50:50;;;;;;;36.00;13.52;;;;;;;4.96;100.00;101974.25;6257498;28;20044;-76
2023/04/10 03:53:52;;;;;;;35.95;15.40;;;;;;;4.95;100.00;101972.53;6260615;28;20049;-76
2023/04/10 03:56:53;;;;;;;40.88;14.40;;;;;;;5.02;100.00;101981.13;6255507;28;20045;-76
2023/04/10 03:59:55;;;;;;;34.13;11.85;;;;;;;5.01;100.00;101980.25;6257341;28;20052;-76
2023/04/10 04:02:59;;;;;;;27.90;12.43;;;;;;;5.08;100.00;101968.88;6259093;28;20048;-76
2023/04/10 04:06:01;;;;;;;35.58;12.60;;;;;;;5.14;100.00;101974.94;6258019;28;20083;-76
2023/04/10 04:09:02;;;;;;;32.78;13.32;;;;;;;5.13;100.00;101971.44;6257070;28;20045;-76
2023/04/10 04:12:03;;;;;;;31.33;12.00;;;;;;;5.14;100.00;101967.13;6257052;28;20052;-75
2023/04/10 04:15:06;;;;;;;34.47;13.35;;;;;;;5.14;100.00;101962.75;6257661;28;20060;-76
2023/04/10 04:18:09;;;;;;;30.00;12.88;;;;;;;5.09;100.00;101977.59;6256133;28;20056;-76
2023/04/10 04:21:10;;;;;;;33.83;13.48;;;;;;;5.03;100.00;101969.81;6255408;28;20048;-76
2023/04/10 04:24:12;;;;;;;24.80;11.60;;;;;;;5.00;100.00;101969.88;6259724;28;20045;-76
2023/04/10 04:27:13;;;;;;;31.00;12.50;;;;;;;5.02;100.00;101968.97;6260418;28;20044;-76
2023/04/10 04:30:14;;;;;;;36.28;12.27;;;;;;;5.00;100.00;101969.88;6256072;28;20052;-76
2023/04/10 04:33:17;;;;;;;33.72;11.57;;;;;;;5.00;100.00;101972.47;6258063;28;20037;-76
2023/04/10 04:36:19;;;;;;;31.92;13.52;;;;;;;4.94;100.00;101965.56;6257526;28;20070;-76
2023/04/10 04:39:22;;;;;;;34.13;12.30;;;;;;;4.94;100.00;101978.59;6265891;28;20049;-76
2023/04/10 04:42:23;;;;;;;30.92;12.40;;;;;;;4.96;100.00;101973.38;6273417;28;20045;-76
2023/04/10 04:45:25;;;;;;;26.55;12.00;;;;;;;4.95;100.00;101976.84;6276194;28;20433;-76
2023/04/10 04:48:27;;;;;;;28.40;11.32;;;;;;;5.01;100.00;101977.66;6275986;28;20048;-75
2023/04/10 04:51:29;;;;;;;27.63;11.35;;;;;;;5.06;100.00;101975.88;6275692;28;20048;-76
2023/04/10 04:54:31;;;;;;;27.30;10.43;;;;;;;5.13;100.00;101975.78;6275622;28;20171;-75
2023/04/10 04:57:32;;;;;;;28.30;11.90;;;;;;;5.20;100.00;101977.47;6275673;28;20426;-76
2023/04/10 05:00:33;;;;;;;26.67;10.65;;;;;;;5.24;100.00;101979.16;6275604;28;20060;-75
2023/04/10 05:03:36;;;;;;;28.00;12.02;;;;;;;5.28;100.00;101975.63;6275792;28;20060;-75
2023/04/10 05:06:38;;;;;;;29.08;11.05;;;;;;;5.26;100.00;101982.59;6273042;28;20048;-75
2023/04/10 05:09:39;;;;;;;29.00;12.35;;;;;;;5.27;100.00;101980.00;6275359;28;20350;-75
2023/04/10 05:12:42;;;;;;;24.25;10.57;;;;;;;5.30;100.00;101987.75;6274997;28;20041;-76
2023/04/10 05:15:43;;;;;;;21.10;10.05;;;;;;;5.36;100.00;101981.63;6275556;28;20040;-75
2023/04/10 05:18:46;;;;;;;24.75;10.30;;;;;;;5.47;100.00;101981.50;6274987;28;20056;-76
2023/04/10 05:21:47;;;;;;;27.40;11.00;;;;;;;5.53;100.00;101984.88;6275242;28;20060;-76
2023/04/10 05:24:48;;;;;;;22.77;10.32;;;;;;;5.63;100.00;101990.81;6275191;28;20452;-75
2023/04/10 05:27:50;;;;;;;27.58;11.85;;;;;;;5.70;100.00;101986.41;6275338;28;20045;-76
2023/04/10 05:30:51;;;;;;;25.25;10.63;;;;;;;5.79;100.00;101984.53;6275600;28;20049;-75
2023/04/10 05:33:54;;;;;;;22.33;9.30;;;;;;;5.86;100.00;101987.94;6275394;28;20056;-75
2023/04/10 05:36:55;;;;;;;26.60;11.48;;;;;;;5.93;100.00;101989.59;6275108;28;20049;-76
2023/04/10 05:39:57;;;;;;;29.02;12.65;;;;;;;6.01;100.00;101989.50;6274047;28;20049;-76
2023/04/10 05:42:58;;;;;;;25.50;11.07;;;;;;;6.06;100.00;101998.97;6272631;28;20049;-70
2023/04/10 05:45:59;;;;;;;32.08;11.73;;;;;;;6.16;100.00;101993.63;6271886;28;20056;-75
2023/04/10 05:49:02;;;;;;;21.73;9.23;;;;;;;6.24;100.00;101996.97;6265165;28;20045;-75
2023/04/10 05:52:04;;;;;;;25.00;10.70;;;;;;;6.32;100.00;101992.50;6272618;28;20045;-75
2023/04/10 05:55:06;;;;;;;28.05;9.80;;;;;;;6.37;100.00;101993.28;6273127;28;20059;-75
2023/04/10 05:58:07;;;;;;;26.20;9.45;;;;;;;6.41;100.00;101973.22;6272768;28;20045;-75
2023/04/10 06:01:10;;;;;;;20.85;9.95;;;;;;;6.44;100.00;101973.16;6273971;28;20052;-75
2023/04/10 06:04:12;;;;;;;18.45;8.93;;;;;;;6.47;100.00;101962.66;6274529;28;20362;-75
2023/04/10 06:07:14;;;;;;;26.20;10.48;;;;;;;6.48;100.00;101964.38;6274537;28;20059;-75
2023/04/10 06:10:15;;;;;;;21.25;10.18;;;;;;;6.52;100.00;101961.69;6275061;28;20052;-75
2023/04/10 06:13:17;;;;;;;28.60;9.27;;;;;;;6.50;100.00;101955.66;6274918;28;20049;-75
2023/04/10 06:16:18;;;;;;;26.55;10.60;;;;;;;6.65;100.00;101958.88;6274407;28;20349;-75
2023/04/10 06:19:21;;;;;;;22.55;9.57;;;;;;;6.72;100.00;101955.25;6274794;28;20059;-75
2023/04/10 06:22:22;;;;;;;22.48;9.65;;;;;;;6.79;100.00;101956.88;6274443;28;20044;-76
2023/04/10 06:25:23;;;;;;;21.75;9.25;;;;;;;6.88;100.00;101956.72;6277642;28;20048;-75
2023/04/10 06:28:25;;;;;;;26.08;9.93;;;;;;;6.98;100.00;101954.78;6279882;28;20049;-75
2023/04/10 06:31:26;;;;;;;26.85;10.45;;;;;;;7.06;100.00;101945.06;6279884;28;20048;-75
2023/04/10 06:34:29;;;;;;;24.95;9.45;;;;;;;7.15;100.00;101939.66;6279589;28;20345;-75
2023/04/10 06:37:31;;;;;;;22.15;10.18;;;;;;;7.21;100.00;101944.75;6279379;28;20072;-75
2023/04/10 06:40:33;;;;;;;21.40;9.15;;;;;;;7.31;100.00;101940.19;6279607;28;20052;-75
2023/04/10 06:43:35;;;;;;;21.88;9.70;;;;;;;7.40;100.00;101934.75;6279423;28;20074;-76
2023/04/10 06:46:36;;;;;;;21.08;9.18;;;;;;;7.44;100.00;101935.56;6278987;28;20052;-75
2023/04/10 06:49:39;;;;;;;18.63;9.07;;;;;;;7.52;100.00;101931.03;6279410;28;20049;-76
2023/04/10 06:52:40;;;;;;;25.83;10.65;;;;;;;7.55;100.00;101926.59;6277920;28;20405;-76
2023/04/10 06:55:42;;;;;;;22.83;9.63;;;;;;;7.59;100.00;101922.16;6272786;28;20060;-76
2023/04/10 06:58:43;;;;;;;19.92;8.85;;;;;;;7.67;100.00;101932.44;6278646;28;20425;-75
2023/04/10 07:01:44;;;;;;;30.77;10.02;;;;;;;7.73;100.00;101922.72;6279086;28;20048;-75
2023/04/10 07:04:47;;;;;;;22.70;9.27;;;;;;;7.82;100.00;101925.13;6278885;28;20055;-75
2023/04/10 07:07:49;;;;;;;20.98;9.10;;;;;;;7.91;100.00;101931.06;6272541;28;20056;-75
2023/04/10 07:10:50;;;;;;;24.27;9.35;;;;;;;8.04;100.00;101917.63;6278827;28;20049;-75
2023/04/10 07:13:57;;;;;;;20.65;9.35;;;;;;;8.11;100.00;101915.72;6278627;28;20052;-75
2023/04/10 07:16:58;;;;;;;21.58;9.10;;;;;;;8.16;100.00;101921.69;6278549;28;20056;-75
2023/04/10 07:20:01;;;;;;;17.60;7.35;;;;;;;8.25;100.00;101918.84;6278425;28;20056;-74
2023/04/10 07:23:03;;;;;;;18.17;8.25;;;;;;;8.34;100.00;101916.00;6275693;28;20061;-74
2023/04/10 07:26:05;;;;;;;18.70;8.52;;;;;;;8.49;100.00;101913.91;6278287;28;20052;-75
2023/04/10 07:29:06;;;;;;;22.23;8.65;;;;;;;8.74;100.00;101909.75;6278291;28;20453;-75
2023/04/10 07:32:08;;;;;;;16.00;8.43;;;;;;;8.87;100.00;101916.41;6277890;28;20114;-74
2023/04/10 07:35:10;;;;;;;17.88;7.57;;;;;;;8.92;100.00;101915.41;6275612;28;20051;-75
2023/04/10 07:38:12;;;;;;;21.58;8.38;;;;;;;8.89;100.00;101911.94;6277724;28;20049;-74
2023/04/10 07:41:13;;;;;;;15.38;7.13;;;;;;;8.94;100.00;101913.59;6278407;28;20060;-75
2023/04/10 07:44:16;;;;;;;16.30;7.53;;;;;;;9.03;100.00;101910.72;6278163;28;20044;-75
2023/04/10 07:47:17;;;;;;;16.17;7.03;;;;;;;9.04;100.00;101915.94;6277515;28;20045;-74
2023/04/10 07:50:20;;;;;;;15.70;7.78;;;;;;;9.04;100.00;101901.97;6277885;28;20067;-75
2023/04/10 07:53:22;;;;;;;21.48;8.43;;;;;;;9.19;100.00;101903.28;6271447;28;20053;-74
2023/04/10 07:56:23;;;;;;;18.08;7.75;;;;;;;9.37;100.00;101894.88;6276224;28;20049;-75
2023/04/10 07:59:25;;;;;;;16.42;7.13;;;;;;;9.53;100.00;101895.25;6275038;28;20044;-75
2023/04/10 08:02:26;;;;;;;17.10;6.55;;;;;;;9.66;100.00;101889.56;6277474;28;20036;-75
2023/04/10 08:05:29;;;;;;;13.45;6.35;;;;;;;9.73;100.00;101885.00;6274717;28;20045;-76
2023/04/10 08:08:30;;;;;;;13.00;6.25;;;;;;;9.80;100.00;101883.03;6277088;28;20349;-75
2023/04/10 08:11:33;;;;;;;14.13;7.60;;;;;;;9.81;100.00;101875.13;6262818;28;20430;-76
2023/04/10 08:14:35;;;;;;;18.95;7.30;;;;;;;9.93;100.00;101878.25;6275385;28;20045;-75
2023/04/10 08:17:36;;;;;;;16.45;7.47;;;;;;;9.94;100.00;101872.09;6275614;28;20053;-75
2023/04/10 08:20:39;;;;;;;13.00;6.32;;;;;;;10.02;100.00;101870.06;6272843;28;20049;-74
2023/04/10 08:23:41;;;;;;;17.35;7.65;;;;;;;10.11;97.91;101860.13;6276937;28;20433;-74
2023/04/10 08:26:42;;;;;;;13.38;6.45;;;;;;;10.14;98.49;101848.66;6268066;28;20053;-74
2023/04/10 08:29:44;;;;;;;16.48;6.97;;;;;;;10.23;99.16;101855.38;6263792;28;20055;-71
2023/04/10 08:32:45;;;;;;;13.40;6.55;;;;;;;10.26;99.35;101850.03;6276872;28;20187;-75
2023/04/10 08:35:48;;;;;;;12.07;6.38;;;;;;;10.49;94.52;101846.59;6276715;28;20056;-74
2023/04/10 08:38:49;;;;;;;16.45;6.05;;;;;;;10.57;93.36;101837.53;6276575;28;20056;-75
2023/04/10 08:41:51;;;;;;;14.88;6.50;;;;;;;10.69;90.53;101838.88;6276790;28;20045;-74
2023/04/10 08:44:52;;;;;;;15.52;6.20;;;;;;;10.78;89.08;101841.19;6276246;28;20049;-75
2023/04/10 08:47:57;;;;;;;12.82;5.38;;;;;;;10.84;91.25;101827.78;6269556;28;20119;-74
2023/04/10 08:51:04;;;;;;;12.48;6.88;;;;;;;11.15;86.26;101816.97;6275423;28;20049;-73
2023/04/10 08:54:07;;;;;;;10.95;5.68;;;;;;;11.10;88.50;101820.69;6266265;28;20051;-73
2023/04/10 08:57:16;;;;;;;13.32;5.78;;;;;;;11.28;82.90;101805.97;6276016;28;20126;-73
2023/04/10 09:00:18;;;;;;;12.48;5.53;;;;;;;11.36;83.23;101798.66;6269399;28;20059;-75
2023/04/10 09:03:20;;;;;;;13.55;6.03;;;;;;;11.46;82.23;101796.50;6266985;28;20121;-75
2023/04/10 09:06:22;;;;;;;10.00;5.45;;;;;;;11.60;79.56;101781.84;6268646;28;20053;-75
2023/04/10 09:09:24;;;;;;;12.18;5.97;;;;;;;11.65;79.51;101790.41;6267218;28;20350;-75
2023/04/10 09:12:26;;;;;;;14.45;5.60;;;;;;;11.80;78.49;101781.00;6273984;28;20119;-73
2023/04/10 09:15:28;;;;;;;13.35;6.13;;;;;;;12.01;73.96;101784.56;6265733;28;20059;-73
2023/04/10 09:18:41;;;;;;;9.32;4.80;;;;;;;11.95;75.81;101790.09;6270294;28;20349;-75
2023/04/10 09:21:50;;;;;;;8.80;4.82;;;;;;;12.14;73.28;101788.38;6268429;28;20068;-75
2023/04/10 09:24:51;;;;;;;10.93;5.72;;;;;;;12.20;73.30;101784.63;6271222;28;20056;-75
2023/04/10 09:28:00;;;;;;;10.75;5.25;;;;;;;12.27;70.62;101774.69;6274358;28;20053;-73
2023/04/10 09:31:01;;;;;;;9.30;4.93;;;;;;;12.30;73.46;101761.34;6275754;28;20056;-73
2023/04/10 09:34:13;;;;;;;11.13;4.88;;;;;;;12.35;72.10;101757.63;6275738;28;20120;-74
2023/04/10 09:37:17;;;;;;;14.38;6.78;;;;;;;12.39;72.64;101738.06;6274539;28;20048;-73
2023/04/10 09:40:21;;;;;;;10.45;5.90;;;;;;;12.62;70.99;101739.66;6270348;28;20489;-73
2023/04/10 09:43:25;;;;;;;15.52;5.32;;;;;;;12.75;69.37;101739.09;6272456;28;20040;-73
2023/04/10 09:46:27;;;;;;;12.25;5.43;;;;;;;12.76;68.61;101743.44;6269912;28;20045;-74
2023/04/10 09:49:28;;;;;;;9.80;5.45;;;;;;;12.87;70.36;101734.13;6273434;28;20095;-74
2023/04/10 09:52:33;;;;;;;13.10;5.88;;;;;;;12.97;69.46;101733.69;6274592;28;20040;-68
2023/04/10 09:55:35;;;;;;;16.50;7.68;;;;;;;12.95;69.08;101736.41;6270601;28;20040;-74
2023/04/10 09:58:37;;;;;;;11.10;5.95;;;;;;;12.94;69.24;101713.56;6273570;28;20453;-73
2023/04/10 10:01:41;;;;;;;12.35;5.40;;;;;;;13.00;69.04;101705.38;6273145;28;20041;-73
2023/04/10 10:04:44;;;;;;;11.45;5.75;;;;;;;13.14;69.26;101705.56;6273974;28;20045;-73
2023/04/10 10:07:47;;;;;;;11.13;4.57;;;;;;;13.18;67.54;101686.00;6272911;28;20045;-73
2023/04/10 10:10:51;;;;;;;11.10;4.85;;;;;;;13.30;67.84;101692.47;6274041;28;20053;-74
2023/04/10 10:13:55;;;;;;;10.13;4.90;;;;;;;13.44;64.35;101683.88;6274157;28;20052;-73
2023/04/10 10:17:01;;;;;;;11.35;4.88;;;;;;;13.66;64.41;101679.19;6267239;28;20049;-73
2023/04/10 10:20:07;;;;;;;10.77;5.28;;;;;;;13.67;64.02;101677.41;6274945;28;20049;-74
2023/04/10 10:23:09;;;;;;;10.10;4.63;;;;;;;13.80;62.88;101667.06;6274719;28;20052;-74
2023/04/10 10:26:12;;;;;;;13.50;5.53;;;;;;;13.85;63.24;101652.72;6274670;28;20049;-73
2023/04/10 10:29:17;;;;;;;9.15;4.40;;;;;;;13.92;63.75;101651.44;6274039;28;20044;-74
2023/04/10 10:32:19;;;;;;;9.70;4.78;;;;;;;14.04;62.36;101642.00;6274567;28;20463;-74
2023/04/10 10:35:21;;;;;;;11.07;4.70;;;;;;;14.24;60.81;101622.41;6274598;28;20174;-74
2023/04/10 10:38:24;;;;;;;8.45;5.07;;;;;;;14.15;61.30;101625.56;6274517;28;20044;-74
2023/04/10 10:41:32;;;;;;;8.27;4.55;;;;;;;14.23;63.25;101620.72;6274380;28;20061;-74
2023/04/10 10:44:42;;;;;;;11.85;4.72;;;;;;;14.46;60.57;101612.38;6273981;28;20045;-74
2023/04/10 10:47:47;;;;;;;9.45;4.43;;;;;;;14.57;60.79;101610.94;6274398;28;20052;-74
2023/04/10 10:50:53;;;;;;;6.97;4.20;;;;;;;14.59;58.04;101596.69;6274703;28;20049;-76
2023/04/10 10:53:56;;;;;;;8.88;4.65;;;;;;;14.82;54.83;101597.19;6274215;28;20151;-77
2023/04/10 10:56:58;;;;;;;8.27;4.28;;;;;;;14.87;54.59;101600.41;6274022;28;20057;-77
2023/04/10 10:59:59;;;;;;;5.85;3.75;;;;;;;14.91;56.02;101583.41;6274567;28;20460;-77
2023/04/10 11:03:29;;;;;;;6.97;3.83;;;;;;;14.96;55.23;101590.16;6274012;28;20449;-77
2023/04/10 11:06:51;;;;;;;7.53;3.85;;;;;;;15.03;54.77;101571.25;6273614;28;20127;-76
2023/04/10 11:09:56;;;;;;;5.30;3.42;;;;;;;15.23;54.64;101555.88;6273517;28;20115;-77
2023/04/10 11:13:17;;;;;;;9.88;3.65;;;;;;;15.27;54.77;101542.47;6277806;28;20053;-77
2023/04/10 11:16:20;;;;;;;7.47;3.80;;;;;;;15.39;53.32;101545.22;6278086;28;20045;-77
2023/04/10 11:19:24;;;;;;;9.82;3.88;;;;;;;15.72;53.90;101544.16;6278296;28;20057;-77
2023/04/10 11:22:26;;;;;;;7.10;4.15;;;;;;;15.80;51.80;101543.66;6278080;28;20041;-77
2023/04/10 11:25:48;;;;;;;10.38;4.10;;;;;;;15.99;55.03;101533.59;6277374;28;20052;-77
2023/04/10 11:28:49;;;;;;;6.40;3.65;;;;;;;16.19;50.97;101534.97;6277961;28;20084;-76
2023/04/10 11:31:55;;;;;;;4.93;3.05;;;;;;;16.19;49.97;101530.50;6268277;28;20060;-77
2023/04/10 11:34:57;;;;;;;6.22;3.53;;;;;;;16.22;50.80;101516.22;6270518;28;20454;-77
2023/04/10 11:38:11;;;;;;;4.28;3.08;;;;;;;16.24;50.73;101519.63;6270439;28;20056;-77
2023/04/10 11:41:14;;;;;;;7.15;3.50;;;;;;;16.33;49.26;101518.16;6271884;28;20049;-76
2023/04/10 11:44:19;;;;;;;5.32;3.47;;;;;;;16.38;50.75;101508.09;6277695;28;20441;-77
2023/04/10 11:47:21;;;;;;;6.47;3.70;;;;;;;16.48;50.22;101507.38;6265013;28;20053;-78
2023/04/10 11:50:22;;;;;;;8.07;3.55;;;;;;;16.49;50.18;101498.50;6271145;28;20052;-78
2023/04/10 11:53:25;;;;;;;7.07;3.83;;;;;;;16.63;50.31;101494.09;6278056;28;20052;-77
2023/04/10 11:56:28;;;;;;;6.45;3.45;;;;;;;16.62;48.97;101479.97;6277404;28;20429;-75
2023/04/10 11:59:31;;;;;;;6.60;3.53;;;;;;;16.60;48.02;101473.03;6277895;28;20055;-74
2023/04/10 12:02:33;;;;;;;9.25;3.75;;;;;;;16.65;49.16;101465.63;6277669;28;20060;-77
2023/04/10 12:05:45;;;;;;;6.60;3.47;;;;;;;16.79;50.10;101457.59;6277485;28;20052;-77
2023/04/10 12:08:49;;;;;;;6.85;3.60;;;;;;;16.75;49.22;101442.84;6277283;28;20052;-74
2023/04/10 12:11:55;;;;;;;5.38;3.15;;;;;;;16.72;47.29;101451.03;6277525;28;20048;-76
2023/04/10 12:14:57;;;;;;;6.95;3.30;;;;;;;16.64;48.46;101448.00;6276851;28;20102;-78
2023/04/10 12:17:58;;;;;;;6.78;3.55;;;;;;;16.61;47.38;101448.19;6276839;28;20045;-77
2023/04/10 12:21:00;;;;;;;6.93;3.60;;;;;;;16.45;46.56;101438.63;6277235;28;20060;-77
2023/04/10 12:24:02;;;;;;;6.88;3.28;;;;;;;16.49;48.53;101434.81;6268592;28;20052;-77
2023/04/10 12:27:05;;;;;;;5.22;3.38;;;;;;;16.52;49.36;101428.44;6273416;28;20599;-77
2023/04/10 12:30:08;;;;;;;4.32;2.80;;;;;;;16.46;50.56;101432.34;6270426;28;20052;-77
2023/04/10 12:33:10;;;;;;;4.30;2.90;;;;;;;16.45;49.34;101430.66;6277037;28;20049;-77
2023/04/10 12:36:20;;;;;;;4.60;2.78;;;;;;;16.43;50.78;101418.44;6272475;28;20053;-77
2023/04/10 12:39:24;;;;;;;5.78;2.80;;;;;;;16.42;49.54;101416.75;6274525;28;20041;-77
2023/04/10 12:42:27;;;;;;;4.32;2.55;;;;;;;16.43;49.40;101413.97;6276636;28;20045;-77
2023/04/10 12:45:44;;;;;;;5.55;2.95;;;;;;;16.49;49.17;101416.25;6276184;28;20052;-77
2023/04/10 12:48:45;;;;;;;4.57;2.80;;;;;;;16.58;46.84;101416.56;6272227;28;20044;-77
2023/04/10 12:51:48;;;;;;;6.88;3.10;;;;;;;16.80;50.02;101400.03;6271635;28;20048;-77
2023/04/10 12:54:50;;;;;;;4.40;3.03;;;;;;;16.98;47.21;101393.47;6269262;28;20049;-77
2023/04/10 12:57:53;;;;;;;5.70;3.10;;;;;;;17.11;47.73;101382.81;6272235;28;20442;-74
2023/04/10 13:00:56;;;;;;;4.80;2.47;;;;;;;17.18;48.34;101384.94;6274600;28;20045;-74
2023/04/10 13:03:58;;;;;;;5.13;2.75;;;;;;;17.14;47.15;101375.50;6268678;28;20187;-75
2023/04/10 13:07:00;;;;;;;4.70;3.05;;;;;;;17.13;45.35;101359.69;6275384;28;20353;-75
2023/04/10 13:10:01;;;;;;;3.83;2.63;;;;;;;17.16;46.83;101359.44;6275731;28;20570;-75
2023/04/10 13:13:05;;;;;;;3.92;2.75;;;;;;;17.16;47.85;101351.47;6267412;28;20049;-75
2023/04/10 13:16:11;;;;;;;4.20;2.70;;;;;;;17.14;46.31;101332.16;6275591;28;20170;-75
2023/04/10 13:19:12;;;;;;;4.88;2.92;;;;;;;17.06;46.43;101322.06;6275736;28;20053;-75
2023/04/10 13:22:14;;;;;;;4.60;2.40;;;;;;;17.12;45.56;101316.34;6275597;28;20053;-75
2023/04/10 13:25:15;;;;;;;5.25;2.95;;;;;;;17.16;45.92;101306.31;6275896;28;20052;-75
2023/04/10 13:28:20;;;;;;;8.20;2.53;;;;;;;17.28;46.94;101301.94;6275590;28;20056;-76
2023/04/10 13:31:21;;;;;;;4.53;2.67;;;;;;;17.46;45.57;101297.94;6275702;28;20457;-76
2023/04/10 13:34:23;;;;;;;8.98;2.97;;;;;;;17.55;46.07;101288.44;6275016;28;20037;-76
2023/04/10 13:37:25;;;;;;;3.08;2.22;;;;;;;17.54;47.46;101286.75;6275234;28;20045;-76
2023/04/10 13:40:26;;;;;;;3.42;2.08;;;;;;;17.69;43.82;101278.47;6275430;28;20052;-75
2023/04/10 13:43:29;;;;;;;3.40;2.15;;;;;;;17.86;42.49;101284.38;6275002;28;20457;-76
2023/04/10 13:46:31;;;;;;;5.30;2.58;;;;;;;17.95;45.04;101252.63;6275167;28;20048;-76
2023/04/10 13:49:32;;;;;;;6.72;2.60;;;;;;;18.12;45.89;101247.81;6274678;28;20052;-76
2023/04/10 13:52:33;;;;;;;5.47;2.45;;;;;;;18.26;42.96;101247.59;6275385;28;20056;-76
2023/04/10 13:55:36;;;;;;;3.50;2.55;;;;;;;18.31;43.91;101236.59;6275366;28;20053;-76
2023/04/10 13:58:39;;;;;;;4.70;3.03;;;;;;;18.36;42.38;101224.63;6275152;28;20138;-76
2023/04/10 14:01:40;;;;;;;4.50;2.45;;;;;;;18.41;42.25;101229.59;6274918;28;20426;-76